Time;durP1;ratioP1;P1;durP2;ratioP2;P2;SDS_P1;SDS_P2;PMS_P1;PMS_P2;Temp;Humidity;BMP_temperature;BMP_pressure;BME280_temperature;BME280_humidity;BME280_pressure;Samples;Min_cycle;Max_cycle;Signal;HPM_P1;HPM_P2
2022/08/10 00:01:01;;;;;;;3.80;2.60;;;15.80;99.90;;;;;;5065928;28;20534;-67
2022/08/10 00:03:26;;;;;;;5.18;3.15;;;15.70;99.90;;;;;;5051111;28;20044;-67
2022/08/10 00:05:53;;;;;;;3.08;1.92;;;15.70;99.90;;;;;;5052137;28;20094;-67
2022/08/10 00:08:26;;;;;;;2.97;1.65;;;15.70;99.90;;;;;;5049044;28;20040;-67
2022/08/10 00:10:53;;;;;;;2.35;1.50;;;15.80;99.90;;;;;;5052191;28;20041;-67
2022/08/10 00:13:19;;;;;;;3.08;1.80;;;15.80;99.90;;;;;;5065847;28;20099;-67
2022/08/10 00:15:45;;;;;;;3.88;2.40;;;15.80;99.90;;;;;;5015702;28;20041;-67
2022/08/10 00:18:10;;;;;;;5.15;2.65;;;15.60;99.90;;;;;;5045206;28;20211;-67
2022/08/10 00:20:36;;;;;;;4.28;2.55;;;15.50;99.90;;;;;;5051386;28;20052;-67
2022/08/10 00:23:03;;;;;;;4.32;2.53;;;15.50;99.90;;;;;;5051853;28;20045;-67
2022/08/10 00:25:29;;;;;;;4.45;2.70;;;15.50;99.90;;;;;;5050980;28;20044;-67
2022/08/10 00:27:54;;;;;;;4.35;2.80;;;15.40;99.90;;;;;;5056865;28;20429;-67
2022/08/10 00:30:20;;;;;;;4.97;2.58;;;15.40;99.90;;;;;;5048787;28;20033;-67
2022/08/10 00:32:46;;;;;;;5.40;2.97;;;15.30;99.90;;;;;;5029674;28;20038;-67
2022/08/10 00:35:12;;;;;;;5.97;4.18;;;15.30;99.90;;;;;;5057943;28;20091;-67
2022/08/10 00:37:38;;;;;;;6.75;3.40;;;15.30;99.90;;;;;;5030566;28;20482;-67
2022/08/10 00:40:05;;;;;;;5.78;3.38;;;15.10;99.90;;;;;;5031824;28;20175;-67
2022/08/10 00:42:30;;;;;;;6.82;3.58;;;15.00;99.90;;;;;;5057481;28;20124;-68
2022/08/10 00:44:56;;;;;;;6.03;3.45;;;15.00;99.90;;;;;;5051680;28;20124;-67
2022/08/10 00:47:23;;;;;;;5.82;3.60;;;14.90;99.90;;;;;;5049879;28;20078;-67
2022/08/10 00:49:48;;;;;;;7.45;3.85;;;14.90;99.90;;;;;;5051943;28;20041;-67
2022/08/10 00:52:15;;;;;;;5.30;3.08;;;14.90;99.90;;;;;;5050660;28;20500;-67
2022/08/10 00:54:42;;;;;;;5.60;3.22;;;14.90;99.90;;;;;;5050669;28;20049;-67
2022/08/10 00:57:09;;;;;;;6.55;4.00;;;14.80;99.90;;;;;;5021650;28;20116;-67
2022/08/10 00:59:35;;;;;;;6.63;4.00;;;14.90;99.90;;;;;;5031477;28;20446;-67
2022/08/10 01:02:00;;;;;;;6.28;3.70;;;14.80;99.90;;;;;;5048095;28;20183;-67
2022/08/10 01:04:26;;;;;;;6.05;3.75;;;14.80;99.90;;;;;;5048069;28;20482;-67
2022/08/10 01:07:16;;;;;;;6.88;3.72;;;14.80;99.90;;;;;;5031854;28;20030;-67
2022/08/10 01:10:18;;;;;;;6.53;4.07;;;14.80;99.90;;;;;;5034823;28;20033;-67
2022/08/10 01:13:13;;;;;;;6.35;3.60;;;14.90;99.90;;;;;;5051161;28;20048;-67
2022/08/10 01:15:54;;;;;;;7.03;3.97;;;14.90;99.90;;;;;;5022370;28;20128;-67
2022/08/10 01:18:23;;;;;;;8.65;4.80;;;14.90;99.90;;;;;;5020520;28;20060;-67
2022/08/10 01:21:26;;;;;;;7.93;4.68;;;14.90;99.90;;;;;;5048025;28;20045;-67
2022/08/10 01:24:38;;;;;;;7.53;4.40;;;14.80;99.90;;;;;;5035044;28;20047;-67
2022/08/10 01:27:04;;;;;;;7.03;3.97;;;14.80;99.90;;;;;;5062027;28;20037;-67
2022/08/10 01:29:41;;;;;;;6.10;3.90;;;14.80;99.90;;;;;;5046755;28;20046;-67
2022/08/10 01:32:10;;;;;;;7.15;4.00;;;14.80;99.90;;;;;;5053894;28;20041;-67
2022/08/10 01:34:48;;;;;;;8.02;4.25;;;14.70;99.90;;;;;;5048834;28;20122;-67
2022/08/10 01:37:19;;;;;;;7.22;4.30;;;14.80;99.90;;;;;;5048569;28;20048;-67
2022/08/10 01:39:48;;;;;;;5.47;3.25;;;14.70;99.90;;;;;;5054500;28;20041;-67
2022/08/10 01:42:17;;;;;;;7.10;4.28;;;14.70;99.90;;;;;;5034918;28;20045;-67
2022/08/10 01:44:50;;;;;;;8.35;4.45;;;14.70;99.90;;;;;;5018251;28;20489;-67
2022/08/10 01:50:31;;;;;;;6.97;4.32;;;14.60;99.90;;;;;;5051915;28;20453;-67
2022/08/10 01:53:08;;;;;;;7.85;4.43;;;14.60;99.90;;;;;;5005649;28;20045;-66
2022/08/10 01:55:35;;;;;;;7.20;4.35;;;14.50;99.90;;;;;;5038584;28;20033;-67
2022/08/10 01:58:04;;;;;;;8.43;5.20;;;14.50;99.90;;;;;;5033696;28;20168;-67
2022/08/10 02:00:32;;;;;;;9.02;6.32;;;14.50;99.90;;;;;;5050727;28;20061;-67
2022/08/10 02:03:00;;;;;;;7.65;5.30;;;14.50;99.90;;;;;;5018316;28;20512;-67
2022/08/10 02:05:28;;;;;;;9.45;5.05;;;14.50;99.90;;;;;;5034472;28;20518;-67
2022/08/10 02:07:56;;;;;;;9.18;5.82;;;14.50;99.90;;;;;;5034487;28;20034;-67
2022/08/10 02:10:24;;;;;;;8.60;5.53;;;14.50;99.90;;;;;;5036162;28;20493;-67
2022/08/10 02:12:55;;;;;;;9.45;6.25;;;14.60;99.90;;;;;;5054050;28;20045;-67
2022/08/10 02:15:22;;;;;;;10.43;6.03;;;14.60;99.90;;;;;;5054174;28;20051;-67
2022/08/10 02:17:54;;;;;;;8.10;4.88;;;14.60;99.90;;;;;;5052167;28;20040;-67
2022/08/10 02:20:21;;;;;;;;;;;14.50;99.90;;;;;;5037954;28;20041;-67
2022/08/10 02:22:59;;;;;;;8.73;5.32;;;14.50;99.90;;;;;;5087680;28;19917;-67
2022/08/10 02:25:26;;;;;;;9.18;6.00;;;14.50;99.90;;;;;;5054042;28;20029;-67
2022/08/10 02:27:53;;;;;;;9.25;6.47;;;14.50;99.90;;;;;;5034871;28;20504;-67
2022/08/10 02:30:20;;;;;;;8.93;6.45;;;14.50;99.90;;;;;;5033545;28;20398;-67
2022/08/10 02:32:48;;;;;;;10.00;6.88;;;14.50;99.90;;;;;;5054145;28;20389;-67
2022/08/10 02:35:14;;;;;;;9.77;6.35;;;14.50;99.90;;;;;;5054077;28;20090;-67
2022/08/10 02:37:44;;;;;;;9.70;6.88;;;14.50;99.90;;;;;;5054016;28;20476;-67
2022/08/10 02:40:10;;;;;;;10.43;7.15;;;14.40;99.90;;;;;;5053818;28;20523;-67
2022/08/10 02:42:44;;;;;;;10.80;7.55;;;14.50;99.90;;;;;;5053376;28;20052;-67
2022/08/10 02:45:16;;;;;;;12.02;7.20;;;14.50;99.90;;;;;;5037555;28;20056;-67
2022/08/10 02:48:08;;;;;;;9.83;7.40;;;14.50;99.90;;;;;;5040949;28;20116;-67
2022/08/10 02:50:35;;;;;;;;;;;14.50;99.90;;;;;;5038694;28;20345;-67
2022/08/10 02:53:22;;;;;;;10.15;6.80;;;14.60;99.90;;;;;;5037194;28;19928;-66
2022/08/10 02:55:57;;;;;;;11.60;8.40;;;14.50;99.90;;;;;;5053732;28;20095;-67
2022/08/10 02:58:29;;;;;;;13.18;8.23;;;14.60;99.90;;;;;;5053340;28;20040;-66
2022/08/10 03:00:58;;;;;;;13.57;8.38;;;14.60;99.90;;;;;;5053434;28;20045;-66
2022/08/10 03:03:31;;;;;;;12.77;8.15;;;14.60;99.90;;;;;;5053899;28;20052;-67
2022/08/10 03:06:06;;;;;;;13.30;9.00;;;14.60;99.90;;;;;;5053240;28;20041;-66
2022/08/10 03:08:36;;;;;;;12.70;8.50;;;14.60;99.90;;;;;;5051164;28;20075;-67
2022/08/10 03:11:05;;;;;;;14.32;9.25;;;14.70;99.90;;;;;;5066393;28;20039;-66
2022/08/10 03:13:32;;;;;;;12.80;8.90;;;14.70;99.90;;;;;;5052944;28;20402;-67
2022/08/10 03:16:00;;;;;;;13.68;10.07;;;14.70;99.90;;;;;;5051331;28;20049;-67
2022/08/10 03:18:26;;;;;;;12.95;9.32;;;14.80;99.90;;;;;;5041496;28;20045;-67
2022/08/10 03:20:53;;;;;;;12.93;9.82;;;14.80;99.90;;;;;;5044200;28;20045;-67
2022/08/10 03:23:23;;;;;;;13.48;8.90;;;14.80;99.90;;;;;;5055650;28;20043;-67
2022/08/10 03:25:51;;;;;;;11.45;8.75;;;14.80;99.90;;;;;;5023922;28;20081;-67
2022/08/10 03:28:19;;;;;;;14.20;9.05;;;14.80;99.90;;;;;;5055312;28;20062;-67
2022/08/10 03:30:46;;;;;;;12.60;8.65;;;14.80;99.90;;;;;;5028516;28;20402;-67
2022/08/10 03:33:12;;;;;;;13.85;9.32;;;14.80;99.90;;;;;;5032797;28;20045;-67
2022/08/10 03:35:38;;;;;;;12.95;8.88;;;14.80;99.90;;;;;;5037894;28;20040;-67
2022/08/10 03:38:04;;;;;;;12.85;9.05;;;14.80;99.90;;;;;;5052962;28;20382;-67
2022/08/10 03:40:33;;;;;;;12.43;9.00;;;14.80;99.90;;;;;;5051447;28;20496;-67
2022/08/10 03:43:01;;;;;;;12.13;8.13;;;14.70;99.90;;;;;;5052837;28;20370;-67
2022/08/10 03:45:27;;;;;;;12.20;8.55;;;14.70;99.90;;;;;;5052567;28;20459;-67
2022/08/10 03:47:54;;;;;;;13.20;8.43;;;14.70;99.90;;;;;;5052689;28;20033;-67
2022/08/10 03:50:20;;;;;;;13.38;9.43;;;14.60;99.90;;;;;;5051488;28;20041;-67
2022/08/10 03:52:47;;;;;;;13.02;9.20;;;14.70;99.90;;;;;;5038452;28;20091;-67
2022/08/10 03:55:13;;;;;;;13.57;9.20;;;14.70;99.90;;;;;;5048362;28;20045;-67
2022/08/10 03:57:39;;;;;;;13.77;9.02;;;14.70;99.90;;;;;;5052000;28;20048;-67
2022/08/10 04:00:07;;;;;;;13.70;9.57;;;14.70;99.90;;;;;;5026713;28;20041;-67
2022/08/10 04:02:33;;;;;;;13.10;9.45;;;14.60;99.90;;;;;;5049087;28;20037;-67
2022/08/10 04:04:59;;;;;;;13.07;8.57;;;14.60;99.90;;;;;;5048770;28;20053;-67
2022/08/10 04:07:25;;;;;;;12.88;9.10;;;14.60;99.90;;;;;;5016133;28;20029;-67
2022/08/10 04:09:52;;;;;;;12.98;9.50;;;14.60;99.90;;;;;;5035718;28;20511;-67
2022/08/10 04:12:18;;;;;;;12.98;9.00;;;14.60;99.90;;;;;;5040498;28;20032;-67
2022/08/10 04:14:44;;;;;;;11.70;8.77;;;14.60;99.90;;;;;;5051888;28;20119;-67
2022/08/10 04:17:09;;;;;;;12.68;8.77;;;14.50;99.90;;;;;;5051962;28;20060;-67
2022/08/10 04:19:46;;;;;;;11.07;8.45;;;14.60;99.90;;;;;;5035708;28;20087;-67
2022/08/10 04:22:19;;;;;;;11.18;7.80;;;14.60;99.90;;;;;;5035414;28;20524;-67
2022/08/10 04:24:48;;;;;;;12.20;8.57;;;14.60;99.90;;;;;;5030902;28;20053;-67
2022/08/10 04:27:14;;;;;;;12.48;8.88;;;14.50;99.90;;;;;;5041870;28;20041;-67
2022/08/10 04:29:41;;;;;;;12.52;8.27;;;14.60;99.90;;;;;;5037296;28;20041;-67
2022/08/10 04:32:09;;;;;;;14.00;9.52;;;14.60;99.90;;;;;;5031896;28;20034;-67
2022/08/10 04:34:36;;;;;;;12.63;8.27;;;14.60;99.90;;;;;;5045329;28;20095;-67
2022/08/10 04:37:05;;;;;;;11.65;8.25;;;14.60;99.90;;;;;;5035456;28;20040;-67
2022/08/10 04:39:31;;;;;;;12.52;8.88;;;14.60;99.90;;;;;;5032859;28;20432;-67
2022/08/10 04:41:57;;;;;;;13.70;9.45;;;14.60;99.90;;;;;;5031809;28;20059;-67
2022/08/10 04:44:23;;;;;;;12.77;8.77;;;14.60;99.90;;;;;;5041598;28;20291;-67
2022/08/10 04:46:49;;;;;;;13.48;9.23;;;14.60;99.90;;;;;;5051446;28;20041;-67
2022/08/10 04:49:14;;;;;;;14.07;10.35;;;14.60;99.90;;;;;;5051911;28;20120;-67
2022/08/10 04:51:40;;;;;;;12.35;8.98;;;14.60;99.90;;;;;;5051666;28;20044;-67
2022/08/10 04:54:05;;;;;;;12.70;9.32;;;14.70;99.90;;;;;;5035082;28;20469;-67
2022/08/10 04:56:31;;;;;;;13.43;9.00;;;14.70;99.90;;;;;;5050577;28;20045;-67
2022/08/10 04:58:57;;;;;;;13.13;9.05;;;14.70;99.90;;;;;;5020739;28;20095;-67
2022/08/10 05:01:22;;;;;;;13.50;8.98;;;14.80;99.90;;;;;;5056574;28;20033;-67
2022/08/10 05:03:48;;;;;;;12.75;8.68;;;14.80;99.90;;;;;;5066250;28;20072;-67
2022/08/10 05:06:13;;;;;;;13.07;9.90;;;14.90;99.90;;;;;;5036911;28;20040;-67
2022/08/10 05:08:39;;;;;;;14.32;10.48;;;14.90;99.90;;;;;;5039232;28;20510;-67
2022/08/10 05:11:05;;;;;;;11.77;8.65;;;14.90;99.90;;;;;;5051686;28;20064;-67
2022/08/10 05:13:31;;;;;;;13.40;9.30;;;15.00;99.90;;;;;;5069953;28;20079;-67
2022/08/10 05:15:56;;;;;;;12.48;8.95;;;15.00;99.90;;;;;;5054280;28;20509;-67
2022/08/10 05:18:22;;;;;;;13.32;10.20;;;15.00;99.90;;;;;;5034371;28;20044;-67
2022/08/10 05:20:47;;;;;;;13.65;10.05;;;15.10;99.90;;;;;;5046330;28;20187;-67
2022/08/10 05:23:13;;;;;;;12.32;9.43;;;15.10;99.90;;;;;;5035371;28;20045;-68
2022/08/10 05:25:39;;;;;;;16.13;10.73;;;15.10;99.90;;;;;;5044266;28;20413;-67
2022/08/10 05:28:05;;;;;;;13.30;9.70;;;15.10;99.90;;;;;;5046662;28;20116;-67
2022/08/10 05:30:30;;;;;;;14.02;9.15;;;15.20;99.90;;;;;;5038337;28;20048;-67
2022/08/10 05:32:56;;;;;;;12.80;9.20;;;15.20;99.90;;;;;;5053405;28;20041;-67
2022/08/10 05:35:22;;;;;;;12.95;9.63;;;15.30;99.90;;;;;;5024956;28;20048;-67
2022/08/10 05:37:50;;;;;;;14.13;9.35;;;15.30;99.90;;;;;;5034383;28;20401;-67
2022/08/10 05:40:16;;;;;;;14.55;9.77;;;15.40;99.90;;;;;;5051616;28;20048;-67
2022/08/10 05:42:41;;;;;;;14.20;9.55;;;15.50;99.90;;;;;;5034905;28;20045;-67
2022/08/10 05:45:23;;;;;;;13.05;9.05;;;15.50;99.90;;;;;;5051825;28;20570;-67
2022/08/10 05:47:50;;;;;;;17.38;9.65;;;15.60;99.90;;;;;;5035123;28;20470;-67
2022/08/10 05:50:17;;;;;;;12.88;8.80;;;15.70;99.90;;;;;;5033742;28;20083;-67
2022/08/10 05:52:44;;;;;;;14.95;10.07;;;15.80;99.90;;;;;;5030959;28;20489;-67
2022/08/10 05:55:10;;;;;;;11.25;8.30;;;15.90;99.90;;;;;;5032369;28;20489;-67
2022/08/10 05:57:36;;;;;;;13.02;8.82;;;15.90;99.90;;;;;;5047277;28;20044;-67
2022/08/10 06:00:06;;;;;;;14.63;9.18;;;16.00;99.90;;;;;;5047375;28;20045;-67
2022/08/10 06:02:36;;;;;;;13.07;8.18;;;16.00;99.90;;;;;;5017393;28;20095;-67
2022/08/10 06:05:15;;;;;;;12.15;8.27;;;16.20;99.90;;;;;;5054113;28;20041;-67
2022/08/10 06:07:53;;;;;;;14.63;9.07;;;16.30;99.90;;;;;;5065006;28;20072;-67
2022/08/10 06:10:20;;;;;;;14.18;8.88;;;16.40;99.90;;;;;;5040427;28;20045;-67
2022/08/10 06:12:47;;;;;;;11.88;8.00;;;16.40;99.90;;;;;;5045166;28;20040;-67
2022/08/10 06:15:15;;;;;;;12.68;8.07;;;16.50;99.90;;;;;;5048133;28;20049;-67
2022/08/10 06:17:43;;;;;;;11.93;7.35;;;16.60;99.90;;;;;;5054185;28;20051;-67
2022/08/10 06:20:10;;;;;;;10.40;7.40;;;16.70;99.90;;;;;;5050430;28;20046;-67
2022/08/10 06:22:35;;;;;;;13.55;7.47;;;16.90;99.90;;;;;;5045837;28;20037;-67
2022/08/10 06:25:02;;;;;;;11.38;7.82;;;17.00;99.90;;;;;;5017633;28;20421;-67
2022/08/10 06:27:28;;;;;;;13.27;7.63;;;17.00;99.90;;;;;;5035132;28;20036;-67
2022/08/10 06:29:55;;;;;;;13.07;8.00;;;17.10;99.90;;;;;;5070719;28;20185;-67
2022/08/10 06:32:27;;;;;;;10.23;7.70;;;17.20;99.90;;;;;;5052978;28;20079;-67
2022/08/10 06:34:54;;;;;;;;;;;17.30;99.90;;;;;;5054360;28;20564;-67
2022/08/10 06:37:24;;;;;;;10.48;6.88;;;17.40;99.90;;;;;;5051384;28;19920;-67
2022/08/10 06:39:51;;;;;;;13.18;8.05;;;17.50;99.90;;;;;;5037308;28;20099;-67
2022/08/10 06:42:26;;;;;;;11.15;7.32;;;17.60;99.90;;;;;;5046027;28;20045;-67
2022/08/10 06:45:06;;;;;;;13.73;7.78;;;17.70;99.90;;;;;;5021202;28;20095;-67
2022/08/10 06:47:50;;;;;;;12.85;6.80;;;17.80;99.90;;;;;;5050297;28;20048;-67
2022/08/10 06:50:22;;;;;;;11.25;7.53;;;17.90;99.90;;;;;;5044148;28;20379;-67
2022/08/10 06:52:51;;;;;;;11.25;7.60;;;18.00;99.90;;;;;;5044078;28;20492;-67
2022/08/10 06:55:18;;;;;;;11.05;7.68;;;18.10;99.90;;;;;;5033607;28;20045;-68
2022/08/10 06:57:44;;;;;;;11.65;7.60;;;18.30;99.90;;;;;;5025525;28;20072;-68
2022/08/10 07:00:13;;;;;;;10.70;6.50;;;18.30;99.90;;;;;;5033455;28;20076;-67
2022/08/10 07:02:54;;;;;;;11.32;6.88;;;18.40;99.90;;;;;;5071869;28;20401;-67
2022/08/10 07:05:24;;;;;;;10.30;7.93;;;18.50;99.90;;;;;;5048647;28;20133;-67
2022/08/10 07:07:53;;;;;;;11.63;7.50;;;18.50;99.90;;;;;;5053504;28;20098;-67
2022/08/10 07:10:21;;;;;;;9.90;6.18;;;18.60;99.90;;;;;;5052428;28;20044;-67
2022/08/10 07:12:49;;;;;;;9.57;6.45;;;18.60;99.90;;;;;;5016515;28;20068;-67
2022/08/10 07:15:17;;;;;;;13.43;7.25;;;18.70;99.90;;;;;;5033348;28;20056;-67
2022/08/10 07:17:43;;;;;;;10.10;6.35;;;18.80;99.90;;;;;;5052663;28;20045;-67
2022/08/10 07:20:13;;;;;;;9.15;6.25;;;18.90;99.90;;;;;;5051196;28;20048;-67
2022/08/10 07:22:40;;;;;;;11.48;6.70;;;18.90;99.90;;;;;;5053057;28;20090;-67
2022/08/10 07:25:07;;;;;;;12.43;6.93;;;18.90;99.90;;;;;;5050267;28;20386;-68
2022/08/10 07:27:34;;;;;;;11.27;6.00;;;19.10;99.90;;;;;;5052854;28;20033;-68
2022/08/10 07:30:01;;;;;;;10.65;6.18;;;19.10;99.90;;;;;;5032102;28;20438;-67
2022/08/10 07:32:28;;;;;;;10.07;6.97;;;19.20;99.90;;;;;;5029507;28;20037;-68
2022/08/10 07:34:56;;;;;;;9.85;5.70;;;19.30;99.90;;;;;;5051634;28;20041;-68
2022/08/10 07:37:23;;;;;;;7.20;4.32;;;19.30;99.90;;;;;;5052677;28;20501;-68
2022/08/10 07:39:51;;;;;;;7.68;4.32;;;19.50;99.90;;;;;;5050658;28;20041;-67
2022/08/10 07:42:21;;;;;;;8.63;3.78;;;19.60;99.90;;;;;;5069268;28;20037;-68
2022/08/10 07:44:49;;;;;;;7.00;3.55;;;19.60;99.90;;;;;;5048583;28;20041;-68
2022/08/10 07:47:21;;;;;;;8.55;3.83;;;19.70;99.90;;;;;;5032520;28;20037;-68
2022/08/10 07:49:48;;;;;;;9.82;4.10;;;19.80;99.90;;;;;;5052285;28;20063;-68
2022/08/10 07:52:13;;;;;;;5.70;3.47;;;19.80;99.90;;;;;;5052517;28;20049;-67
2022/08/10 07:54:46;;;;;;;6.75;3.50;;;19.90;99.90;;;;;;5052715;28;20663;-68
2022/08/10 07:57:22;;;;;;;7.18;3.35;;;20.00;99.90;;;;;;5058928;28;20083;-68
2022/08/10 07:59:55;;;;;;;8.57;3.30;;;20.00;99.90;;;;;;5032644;28;20055;-68
2022/08/10 08:02:36;;;;;;;7.80;3.47;;;20.10;99.90;;;;;;5056784;28;20462;-68
2022/08/10 08:05:07;;;;;;;7.75;3.10;;;20.20;99.90;;;;;;5037795;28;20036;-68
2022/08/10 08:07:35;;;;;;;8.98;3.13;;;20.30;99.90;;;;;;5050485;28;20040;-69
2022/08/10 08:10:03;;;;;;;7.05;3.00;;;20.40;99.90;;;;;;5063611;28;20037;-68
2022/08/10 08:12:30;;;;;;;5.80;2.80;;;20.50;99.90;;;;;;5035531;28;20041;-68
2022/08/10 08:14:57;;;;;;;7.15;2.88;;;20.70;99.90;;;;;;5048363;28;20053;-69
2022/08/10 08:17:25;;;;;;;5.35;2.90;;;20.60;99.90;;;;;;5051907;28;20048;-68
2022/08/10 08:19:53;;;;;;;5.00;2.60;;;20.80;99.90;;;;;;5030119;28;20041;-67
2022/08/10 08:22:19;;;;;;;5.68;3.20;;;20.90;99.90;;;;;;5031729;28;20044;-67
2022/08/10 08:24:46;;;;;;;7.18;2.60;;;21.10;99.90;;;;;;5082719;28;20122;-68
2022/08/10 08:27:15;;;;;;;6.05;2.90;;;21.20;99.90;;;;;;5031559;28;20147;-67
2022/08/10 08:29:43;;;;;;;6.30;2.58;;;21.30;99.90;;;;;;5051858;28;20064;-67
2022/08/10 08:32:10;;;;;;;8.50;2.50;;;21.40;99.90;;;;;;5049668;28;20040;-68
2022/08/10 08:34:40;;;;;;;6.10;2.20;;;21.40;99.90;;;;;;5051068;28;20043;-67
2022/08/10 08:37:11;;;;;;;6.03;2.50;;;21.50;99.90;;;;;;5048625;28;20069;-67
2022/08/10 08:39:37;;;;;;;5.90;2.60;;;21.70;99.90;;;;;;5048895;28;20041;-68
2022/08/10 08:42:21;;;;;;;7.07;2.50;;;21.80;99.90;;;;;;5050396;28;20118;-68
2022/08/10 08:45:44;;;;;;;4.55;2.28;;;21.80;99.90;;;;;;5063557;28;20051;-68
2022/08/10 08:48:55;;;;;;;9.23;2.65;;;22.00;99.90;;;;;;5018289;28;20049;-67
2022/08/10 08:51:23;;;;;;;6.35;3.10;;;22.10;99.90;;;;;;5014504;28;20585;-68
2022/08/10 08:54:45;;;;;;;7.40;2.95;;;22.10;99.90;;;;;;5037595;28;20124;-67
2022/08/10 08:57:30;;;;;;;;;;;22.20;99.90;;;;;;5020035;28;20045;-68
2022/08/10 09:00:14;;;;;;;5.45;2.40;;;22.30;99.90;;;;;;5057824;28;20006;-67
2022/08/10 09:03:17;;;;;;;6.35;2.17;;;22.40;99.90;;;;;;5035057;28;20493;-68
2022/08/10 09:06:04;;;;;;;5.78;2.40;;;22.50;99.90;;;;;;5050241;28;20049;-67
2022/08/10 09:08:48;;;;;;;7.03;2.20;;;22.70;99.90;;;;;;5028676;28;20041;-68
2022/08/10 09:11:46;;;;;;;7.35;2.20;;;22.70;99.90;;;;;;5046721;28;20036;-67
2022/08/10 09:14:29;;;;;;;6.70;2.28;;;22.80;99.90;;;;;;5031088;28;20231;-67
2022/08/10 09:17:30;;;;;;;5.10;2.55;;;22.90;99.90;;;;;;5047523;28;20037;-68
2022/08/10 09:20:15;;;;;;;5.15;2.50;;;23.00;99.90;;;;;;5024055;28;20087;-68
2022/08/10 09:22:59;;;;;;;6.30;2.30;;;23.10;99.90;;;;;;5021824;28;20477;-68
2022/08/10 09:25:33;;;;;;;7.00;2.60;;;23.10;99.90;;;;;;5021723;28;20124;-68
2022/08/10 09:28:08;;;;;;;12.52;2.67;;;23.30;99.90;;;;;;5035450;28;20045;-68
2022/08/10 09:30:55;;;;;;;6.85;2.20;;;23.20;99.90;;;;;;5083961;28;20521;-68
2022/08/10 09:33:59;;;;;;;6.28;2.50;;;23.40;99.90;;;;;;5051336;28;20051;-68
2022/08/10 09:36:49;;;;;;;6.55;2.33;;;23.40;99.90;;;;;;5022323;28;20045;-68
2022/08/10 09:39:57;;;;;;;4.38;2.17;;;23.40;99.90;;;;;;5039430;28;20037;-68
2022/08/10 09:42:50;;;;;;;6.97;2.80;;;23.50;99.90;;;;;;5049224;28;20049;-68
2022/08/10 09:45:25;;;;;;;6.22;2.85;;;23.70;99.90;;;;;;5041787;28;20079;-68
2022/08/10 09:48:14;;;;;;;6.10;2.10;;;23.70;99.90;;;;;;5019124;28;20045;-68
2022/08/10 09:50:58;;;;;;;6.60;2.30;;;23.80;99.90;;;;;;5021561;28;20408;-68
2022/08/10 09:53:43;;;;;;;6.70;2.20;;;23.90;99.90;;;;;;5031687;28;20029;-68
2022/08/10 09:56:17;;;;;;;7.22;2.25;;;24.00;99.90;;;;;;5035500;28;20410;-68
2022/08/10 09:59:02;;;;;;;5.93;2.33;;;24.10;99.90;;;;;;5054795;28;20041;-68
2022/08/10 10:01:37;;;;;;;6.20;2.30;;;24.20;99.90;;;;;;5051801;28;20060;-68
2022/08/10 10:04:32;;;;;;;4.03;2.13;;;24.20;99.90;;;;;;5036077;28;20076;-68
2022/08/10 10:07:01;;;;;;;6.10;2.05;;;24.30;99.90;;;;;;5065072;28;20124;-68
2022/08/10 10:09:52;;;;;;;4.82;2.00;;;24.50;99.90;;;;;;5045298;28;20514;-68
2022/08/10 10:12:43;;;;;;;6.25;2.13;;;24.50;99.90;;;;;;5018381;28;20041;-68
2022/08/10 10:15:51;;;;;;;5.80;1.98;;;24.50;99.90;;;;;;5054363;28;20041;-68
2022/08/10 10:18:45;;;;;;;5.07;2.15;;;24.60;99.90;;;;;;5048944;28;20038;-68
2022/08/10 10:21:23;;;;;;;5.80;2.53;;;24.70;99.90;;;;;;5028725;28;20037;-68
2022/08/10 10:24:04;;;;;;;6.45;2.30;;;24.80;99.90;;;;;;5037769;28;20044;-68
2022/08/10 10:26:58;;;;;;;5.72;1.70;;;24.90;99.90;;;;;;5052125;28;20429;-68
2022/08/10 10:29:52;;;;;;;9.05;2.22;;;25.00;99.90;;;;;;5052262;28;20401;-68
2022/08/10 10:32:31;;;;;;;4.90;1.85;;;25.00;99.90;;;;;;5025662;28;20057;-68
2022/08/10 10:35:26;;;;;;;4.53;1.80;;;25.00;98.40;;;;;;5033348;28;20037;-68
2022/08/10 10:37:54;;;;;;;3.80;1.80;;;25.00;99.90;;;;;;5019971;28;20443;-68
2022/08/10 10:40:21;;;;;;;3.22;1.80;;;25.10;99.90;;;;;;5027334;28;20041;-68
2022/08/10 10:43:23;;;;;;;5.70;1.90;;;25.10;99.90;;;;;;5050850;28;20080;-68
2022/08/10 10:46:16;;;;;;;4.63;1.80;;;25.20;99.90;;;;;;5051449;28;20037;-68
2022/08/10 10:48:53;;;;;;;5.28;1.58;;;25.20;96.30;;;;;;5033542;28;20041;-68
2022/08/10 10:51:33;;;;;;;3.67;2.15;;;25.30;99.90;;;;;;5028235;28;20045;-68
2022/08/10 10:54:23;;;;;;;4.93;1.90;;;25.40;99.90;;;;;;5033344;28;20041;-68
2022/08/10 10:57:00;;;;;;;6.28;1.65;;;25.40;99.90;;;;;;5039623;28;20083;-68
2022/08/10 10:59:52;;;;;;;5.60;1.80;;;25.40;96.30;;;;;;5053209;28;20108;-68
2022/08/10 11:02:43;;;;;;;7.88;2.00;;;25.50;96.80;;;;;;5044799;28;20389;-68
2022/08/10 11:05:21;;;;;;;2.88;1.70;;;25.60;96.50;;;;;;5043583;28;20397;-68
2022/08/10 11:08:14;;;;;;;7.63;1.95;;;25.60;97.50;;;;;;5058306;28;20513;-68
2022/08/10 11:10:44;;;;;;;3.58;1.70;;;25.50;96.00;;;;;;5050448;28;20041;-68
2022/08/10 11:13:18;;;;;;;4.90;1.77;;;25.60;95.70;;;;;;5055749;28;20067;-68
2022/08/10 11:15:57;;;;;;;4.05;1.50;;;25.70;94.90;;;;;;5060626;28;20045;-68
2022/08/10 11:18:34;;;;;;;3.58;1.60;;;25.70;94.50;;;;;;5052657;28;20055;-68
2022/08/10 11:21:19;;;;;;;5.13;1.75;;;25.70;96.70;;;;;;5042935;28;20047;-68
2022/08/10 11:24:06;;;;;;;4.20;1.70;;;25.60;94.40;;;;;;5021630;28;20536;-68
2022/08/10 11:26:51;;;;;;;6.57;1.65;;;25.70;95.30;;;;;;5056748;28;20180;-69
2022/08/10 11:29:26;;;;;;;4.15;1.60;;;25.70;96.20;;;;;;5037980;28;20033;-68
2022/08/10 11:32:01;;;;;;;7.05;1.50;;;25.70;96.30;;;;;;5055453;28;20041;-68
2022/08/10 11:34:33;;;;;;;2.95;1.40;;;25.80;95.10;;;;;;5032716;28;20378;-70
2022/08/10 11:37:22;;;;;;;4.63;1.33;;;25.90;95.60;;;;;;5051029;28;20033;-70
2022/08/10 11:40:08;;;;;;;4.13;1.60;;;25.80;96.10;;;;;;5044626;28;20072;-68
2022/08/10 11:43:00;;;;;;;3.33;1.60;;;25.80;95.20;;;;;;5059267;28;20041;-68
2022/08/10 11:45:33;;;;;;;4.85;1.40;;;25.80;92.70;;;;;;5016292;28;20088;-68
2022/08/10 11:48:07;;;;;;;3.22;1.48;;;25.80;93.80;;;;;;5083305;28;20037;-68
2022/08/10 11:50:46;;;;;;;5.45;1.58;;;25.80;94.70;;;;;;5048950;28;20041;-68
2022/08/10 11:53:23;;;;;;;2.47;1.50;;;25.90;91.20;;;;;;5032577;28;20053;-68
2022/08/10 11:55:54;;;;;;;3.85;1.50;;;25.90;94.30;;;;;;5062841;28;20053;-68
2022/08/10 12:01:12;;;;;;;5.07;1.50;;;25.90;92.90;;;;;;5056280;28;20124;-67
2022/08/10 12:03:40;;;;;;;2.50;1.40;;;25.90;93.60;;;;;;5030806;28;20498;-68
2022/08/10 12:06:12;;;;;;;4.63;1.38;;;25.90;93.60;;;;;;5055943;28;20120;-68
2022/08/10 12:08:40;;;;;;;4.65;1.40;;;25.90;93.10;;;;;;5044483;28;20041;-68
2022/08/10 12:11:09;;;;;;;3.40;1.25;;;25.80;92.40;;;;;;5052277;28;20033;-68
2022/08/10 12:13:40;;;;;;;5.10;1.48;;;25.80;90.90;;;;;;5043585;28;20045;-68
2022/08/10 12:16:14;;;;;;;2.17;1.20;;;25.80;90.20;;;;;;5057691;28;20128;-68
2022/08/10 12:18:50;;;;;;;3.33;1.58;;;25.90;89.30;;;;;;5032376;28;20552;-69
2022/08/10 12:21:23;;;;;;;4.25;1.40;;;25.90;92.00;;;;;;5045903;28;20446;-68
2022/08/10 12:24:14;;;;;;;3.70;1.52;;;25.90;92.90;;;;;;5031778;28;20521;-68
2022/08/10 12:27:01;;;;;;;4.05;1.55;;;25.90;89.40;;;;;;5047200;28;20041;-68
2022/08/10 12:29:41;;;;;;;4.40;1.50;;;25.90;91.30;;;;;;5031759;28;20037;-68
2022/08/10 12:32:25;;;;;;;3.05;1.52;;;25.90;93.40;;;;;;5032122;28;20044;-68
2022/08/10 12:34:59;;;;;;;3.63;1.40;;;26.00;88.50;;;;;;5049586;28;20036;-68
2022/08/10 12:37:50;;;;;;;4.38;1.50;;;26.00;82.80;;;;;;5051280;28;20124;-68
2022/08/10 12:40:22;;;;;;;6.70;1.80;;;26.00;88.10;;;;;;5031460;28;20479;-68
2022/08/10 12:43:10;;;;;;;3.28;1.52;;;26.00;87.60;;;;;;5050078;28;20124;-69
2022/08/10 12:46:16;;;;;;;3.30;1.50;;;26.00;84.70;;;;;;5055355;28;20044;-68
2022/08/10 12:49:20;;;;;;;6.25;1.70;;;26.00;82.90;;;;;;5047450;28;20041;-68
2022/08/10 12:51:54;;;;;;;4.75;1.60;;;26.00;90.30;;;;;;5031040;28;20038;-68
2022/08/10 12:54:21;;;;;;;3.42;1.45;;;25.90;90.70;;;;;;5029926;28;20041;-68
2022/08/10 12:56:58;;;;;;;5.03;1.40;;;25.90;90.30;;;;;;5034922;28;20090;-68
2022/08/10 12:59:26;;;;;;;3.95;1.33;;;26.00;90.40;;;;;;5024755;28;20521;-68
2022/08/10 13:01:55;;;;;;;4.60;1.70;;;25.90;90.10;;;;;;5048298;28;20069;-68
2022/08/10 13:04:33;;;;;;;5.13;1.90;;;26.00;89.30;;;;;;5041919;28;20555;-68
2022/08/10 13:07:00;;;;;;;2.95;1.50;;;26.00;88.90;;;;;;5064977;28;20044;-68
2022/08/10 13:09:27;;;;;;;5.68;1.80;;;25.90;91.10;;;;;;5031126;28;20124;-68
2022/08/10 13:12:04;;;;;;;3.90;1.45;;;26.10;92.70;;;;;;5034168;28;20048;-68
2022/08/10 13:14:45;;;;;;;4.20;1.70;;;26.10;85.80;;;;;;5052381;28;20087;-68
2022/08/10 13:17:13;;;;;;;2.90;1.83;;;26.10;87.30;;;;;;5050809;28;20033;-68
2022/08/10 13:19:44;;;;;;;5.63;1.38;;;26.00;86.90;;;;;;5060852;28;20132;-68
2022/08/10 13:22:12;;;;;;;2.77;1.20;;;26.10;85.60;;;;;;5050332;28;20497;-68